createdAt,value
2023-04-20T00:00:47.789Z,66.37
2023-04-20T00:03:14.643Z,66.41
2023-04-20T00:05:41.422Z,65.78
2023-04-20T00:08:08.253Z,65.88
2023-04-20T00:10:34.839Z,65.41
2023-04-20T00:13:01.374Z,65.70
2023-04-20T00:15:27.965Z,66.93
2023-04-20T00:17:54.835Z,67.61
2023-04-20T00:20:21.497Z,66.54
2023-04-20T00:22:49.981Z,66.95
2023-04-20T00:25:18.100Z,66.40
2023-04-20T00:27:45.964Z,67.07
2023-04-20T00:30:15.115Z,66.42
2023-04-20T00:32:43.069Z,66.60
2023-04-20T00:35:13.589Z,66.40
2023-04-20T00:37:42.162Z,67.30
2023-04-20T00:40:10.820Z,67.34
2023-04-20T00:42:41.684Z,67.72
2023-04-20T00:45:11.041Z,67.09
2023-04-20T00:47:39.618Z,67.57
2023-04-20T00:50:08.773Z,66.59
2023-04-20T00:52:37.435Z,66.88
2023-04-20T00:55:08.392Z,66.94
2023-04-20T00:57:35.497Z,67.20
2023-04-20T01:00:02.092Z,67.14
2023-04-20T01:02:28.997Z,66.77
2023-04-20T01:04:56.429Z,67.62
2023-04-20T01:07:23.058Z,67.06
2023-04-20T01:09:49.662Z,67.37
2023-04-20T01:12:16.519Z,67.44
2023-04-20T01:14:43.074Z,66.52
2023-04-20T01:17:09.694Z,66.90
2023-04-20T01:19:36.237Z,66.76
2023-04-20T01:22:02.873Z,66.69
2023-04-20T01:24:29.446Z,66.77
2023-04-20T01:26:56.431Z,66.80
2023-04-20T01:29:23.150Z,67.40
2023-04-20T01:31:49.766Z,67.52
2023-04-20T01:34:17.752Z,67.48
2023-04-20T01:36:45.378Z,67.21
2023-04-20T01:39:12.571Z,67.10
2023-04-20T01:41:39.715Z,67.64
2023-04-20T01:44:06.249Z,67.36
2023-04-20T01:46:32.822Z,67.52
2023-04-20T01:48:59.445Z,67.42
2023-04-20T01:51:25.954Z,68.21
2023-04-20T01:53:52.473Z,67.81
2023-04-20T01:56:19.002Z,68.28
2023-04-20T01:58:45.686Z,68.09
2023-04-20T02:01:13.132Z,67.80
2023-04-20T02:03:39.971Z,68.10
2023-04-20T02:06:06.820Z,67.94
2023-04-20T02:08:34.042Z,67.92
2023-04-20T02:11:00.833Z,68.04
2023-04-20T02:13:27.950Z,68.58
2023-04-20T02:15:54.675Z,67.93
2023-04-20T02:18:21.531Z,68.73
2023-04-20T02:20:48.118Z,67.54
2023-04-20T02:23:14.765Z,68.43
2023-04-20T02:25:41.519Z,68.68
2023-04-20T02:28:08.056Z,68.38
2023-04-20T02:30:34.618Z,68.89
2023-04-20T02:33:01.400Z,68.41
2023-04-20T02:35:28.164Z,68.59
2023-04-20T02:37:54.697Z,68.57
2023-04-20T02:40:21.350Z,68.33
2023-04-20T02:42:47.903Z,69.21
2023-04-20T02:45:14.560Z,68.87
2023-04-20T02:47:41.664Z,69.39
2023-04-20T02:50:09.575Z,69.38
2023-04-20T02:52:36.168Z,69.19
2023-04-20T02:55:03.125Z,69.54
2023-04-20T02:57:29.786Z,68.85
2023-04-20T02:59:56.730Z,69.45
2023-04-20T03:02:23.355Z,69.53
2023-04-20T03:04:50.082Z,69.82
2023-04-20T03:07:17.887Z,70.13
2023-04-20T03:09:44.543Z,70.00
2023-04-20T03:12:11.163Z,69.82
2023-04-20T03:14:37.704Z,69.76
2023-04-20T03:17:04.513Z,70.41
2023-04-20T03:19:31.099Z,70.15
2023-04-20T03:21:57.625Z,70.12
2023-04-20T03:24:24.204Z,69.91
2023-04-20T03:26:50.831Z,69.96
2023-04-20T03:29:17.576Z,69.85
2023-04-20T03:31:44.518Z,70.17
2023-04-20T03:34:11.175Z,70.02
2023-04-20T03:36:37.808Z,70.19
2023-04-20T03:39:04.619Z,70.13
2023-04-20T03:41:31.842Z,70.65
2023-04-20T03:43:58.498Z,70.62
2023-04-20T03:46:25.268Z,70.18
2023-04-20T03:48:51.994Z,70.28
2023-04-20T03:51:18.754Z,71.07
2023-04-20T03:53:45.351Z,70.66
2023-04-20T03:56:11.951Z,70.80
2023-04-20T03:58:38.571Z,71.20
2023-04-20T04:01:07.907Z,70.65
2023-04-20T04:03:35.891Z,71.16
2023-04-20T04:06:03.630Z,71.08
2023-04-20T04:08:30.213Z,70.98
2023-04-20T04:10:56.712Z,71.52
2023-04-20T04:13:23.354Z,71.22
2023-04-20T04:15:50.498Z,71.11
2023-04-20T04:18:17.126Z,71.02
2023-04-20T04:20:43.674Z,71.14
2023-04-20T04:23:10.539Z,70.95
2023-04-20T04:25:40.301Z,70.95
2023-04-20T04:28:07.398Z,70.44
2023-04-20T04:30:34.123Z,71.08
2023-04-20T04:33:00.717Z,70.76
2023-04-20T04:35:27.429Z,71.54
2023-04-20T04:37:54.176Z,71.05
2023-04-20T04:40:20.859Z,71.00
2023-04-20T04:42:48.686Z,71.22
2023-04-20T04:45:15.353Z,71.43
2023-04-20T04:47:42.429Z,71.46
2023-04-20T04:50:10.653Z,70.95
2023-04-20T04:52:37.360Z,70.80
2023-04-20T04:55:08.237Z,71.46
2023-04-20T04:57:35.225Z,70.55
2023-04-20T05:00:01.951Z,71.02
2023-04-20T05:02:28.909Z,70.76
2023-04-20T05:04:56.325Z,70.67
2023-04-20T05:07:23.070Z,70.78
2023-04-20T05:09:49.573Z,70.63
2023-04-20T05:12:16.178Z,70.71
2023-04-20T05:14:42.759Z,70.84
2023-04-20T05:17:09.371Z,70.76
2023-04-20T05:19:35.970Z,70.43
2023-04-20T05:22:02.646Z,70.54
2023-04-20T05:24:29.505Z,70.63
2023-04-20T05:26:56.052Z,70.46
2023-04-20T05:29:22.647Z,70.62
2023-04-20T05:31:49.266Z,70.45
2023-04-20T05:34:16.658Z,70.75
2023-04-20T05:36:43.211Z,70.50
2023-04-20T05:39:10.591Z,70.97
2023-04-20T05:41:37.119Z,70.52
2023-04-20T05:44:03.790Z,71.06
2023-04-20T05:46:30.573Z,70.61
2023-04-20T05:48:57.187Z,71.09
2023-04-20T05:51:24.990Z,70.87
2023-04-20T05:53:51.547Z,71.04
2023-04-20T05:56:18.580Z,70.98
2023-04-20T05:58:45.449Z,70.50
2023-04-20T06:01:12.174Z,70.67
2023-04-20T06:03:38.838Z,71.30
2023-04-20T06:06:05.923Z,71.07
2023-04-20T06:08:32.586Z,71.01
2023-04-20T06:10:59.234Z,70.94
2023-04-20T06:13:26.301Z,70.96
2023-04-20T06:15:54.178Z,70.71
2023-04-20T06:18:20.922Z,71.04
2023-04-20T06:20:47.555Z,70.81
2023-04-20T06:23:14.136Z,70.42
2023-04-20T06:25:41.023Z,71.28
2023-04-20T06:28:07.833Z,71.32
2023-04-20T06:30:34.809Z,71.31
2023-04-20T06:33:01.997Z,71.26
2023-04-20T06:35:28.998Z,70.83
2023-04-20T06:37:57.652Z,71.88
2023-04-20T06:40:28.202Z,71.13
2023-04-20T06:42:54.795Z,71.57
2023-04-20T06:45:21.482Z,72.35
2023-04-20T06:47:48.260Z,71.74
2023-04-20T06:50:15.018Z,70.98
2023-04-20T06:52:42.529Z,71.24
2023-04-20T06:55:09.548Z,70.14
2023-04-20T06:57:38.516Z,69.42
2023-04-20T07:00:08.974Z,68.60
2023-04-20T07:02:44.731Z,68.71
2023-04-20T07:05:11.945Z,67.26
2023-04-20T07:07:38.953Z,66.54
2023-04-20T07:10:07.631Z,65.78
2023-04-20T07:12:36.628Z,65.75
2023-04-20T07:15:09.234Z,65.14
2023-04-20T07:17:35.998Z,64.46
2023-04-20T07:20:08.537Z,62.71
2023-04-20T07:22:36.344Z,63.02
2023-04-20T07:25:05.478Z,61.94
2023-04-20T07:27:35.811Z,61.24
2023-04-20T07:30:02.483Z,60.25
2023-04-20T07:32:29.094Z,58.96
2023-04-20T07:34:55.793Z,57.79
2023-04-20T07:37:22.431Z,57.27
2023-04-20T07:39:48.992Z,57.63
2023-04-20T07:42:15.617Z,56.08
2023-04-20T07:44:42.171Z,57.03
2023-04-20T07:47:08.746Z,56.37
2023-04-20T07:49:37.813Z,55.22
2023-04-20T07:52:15.567Z,54.13
2023-04-20T07:54:44.430Z,53.16
2023-04-20T07:57:11.279Z,53.55
2023-04-20T07:59:37.927Z,52.86
2023-04-20T08:02:04.610Z,52.31
2023-04-20T08:04:34.213Z,51.75
2023-04-20T08:07:01.283Z,51.44
2023-04-20T08:09:28.534Z,51.20
2023-04-20T08:11:55.184Z,49.38
2023-04-20T08:14:21.777Z,48.18
2023-04-20T08:16:48.422Z,48.39
2023-04-20T08:21:46.465Z,47.03
2023-04-20T08:24:13.685Z,47.94
2023-04-20T08:26:40.834Z,47.56
2023-04-20T08:29:07.414Z,48.24
2023-04-20T08:31:34.159Z,47.85
2023-04-20T08:34:01.123Z,46.40
2023-04-20T08:36:28.145Z,45.99
2023-04-20T08:39:06.137Z,44.46
2023-04-20T08:41:32.741Z,44.18
2023-04-20T08:43:59.764Z,43.04
2023-04-20T08:46:26.897Z,42.39
2023-04-20T08:48:55.897Z,42.01
2023-04-20T08:51:23.054Z,41.62
2023-04-20T08:53:50.392Z,42.06
2023-04-20T08:56:16.943Z,41.10
2023-04-20T08:58:43.498Z,41.06
2023-04-20T09:01:15.496Z,41.01
2023-04-20T09:03:44.548Z,40.14
2023-04-20T09:06:18.828Z,40.76
2023-04-20T09:08:46.726Z,40.21
2023-04-20T09:11:29.844Z,39.35
2023-04-20T09:14:14.472Z,37.78
2023-04-20T09:16:51.343Z,36.95
2023-04-20T09:19:23.500Z,38.50
2023-04-20T09:21:51.309Z,39.34
2023-04-20T09:24:20.844Z,38.41
2023-04-20T09:26:47.802Z,38.06
2023-04-20T09:29:20.724Z,37.14
2023-04-20T09:31:48.237Z,36.56
2023-04-20T09:34:15.941Z,36.36
2023-04-20T09:36:46.363Z,36.49
2023-04-20T09:39:17.037Z,36.93
2023-04-20T09:41:44.188Z,37.85
2023-04-20T09:44:12.120Z,37.17
2023-04-20T09:46:40.718Z,37.02
2023-04-20T09:49:09.206Z,37.26
2023-04-20T09:51:38.434Z,36.62
2023-04-20T09:54:06.643Z,36.16
2023-04-20T09:56:35.908Z,36.38
2023-04-20T09:59:04.833Z,35.67
2023-04-20T10:01:34.763Z,36.89
2023-04-20T10:04:03.900Z,36.98
2023-04-20T10:06:33.589Z,36.66
2023-04-20T10:09:03.049Z,36.59
2023-04-20T10:14:26.171Z,37.32
2023-04-20T10:17:01.125Z,36.33
2023-04-20T10:19:44.786Z,36.94
2023-04-20T10:22:25.087Z,35.62
2023-04-20T10:24:51.685Z,35.88
2023-04-20T10:27:19.770Z,36.97
2023-04-20T10:29:47.019Z,37.16
2023-04-20T10:32:23.426Z,35.18
2023-04-20T10:35:01.685Z,35.96
2023-04-20T10:37:29.095Z,35.72
2023-04-20T10:39:55.812Z,35.92
2023-04-20T10:42:22.432Z,36.85
2023-04-20T10:47:30.849Z,36.10
2023-04-20T10:50:15.222Z,36.37
2023-04-20T10:52:43.706Z,36.11
2023-04-20T10:55:21.099Z,36.15
2023-04-20T10:57:48.715Z,36.90
2023-04-20T11:00:18.467Z,37.22
2023-04-20T11:05:27.241Z,36.62
2023-04-20T11:07:55.297Z,35.31
2023-04-20T11:10:24.768Z,34.92
2023-04-20T11:12:52.038Z,34.92
2023-04-20T11:15:18.860Z,36.16
2023-04-20T11:17:47.023Z,35.37
2023-04-20T11:20:17.010Z,35.55
2023-04-20T11:22:44.498Z,34.72
2023-04-20T11:25:13.032Z,34.74
2023-04-20T11:27:40.104Z,35.23
2023-04-20T11:30:07.977Z,34.56
2023-04-20T11:32:35.907Z,34.35
2023-04-20T11:35:07.891Z,34.54
2023-04-20T11:37:47.115Z,33.83
2023-04-20T11:40:15.132Z,36.01
2023-04-20T11:42:41.941Z,35.77
2023-04-20T11:45:08.909Z,33.44
2023-04-20T11:47:35.556Z,35.06
2023-04-20T11:50:02.233Z,34.80
2023-04-20T11:52:29.154Z,35.78
2023-04-20T11:54:55.814Z,34.08
2023-04-20T11:57:24.008Z,34.19
2023-04-20T11:59:50.641Z,34.38
2023-04-20T12:02:17.475Z,34.49
2023-04-20T12:04:44.378Z,34.21
2023-04-20T12:07:11.309Z,34.83
2023-04-20T12:09:38.922Z,34.57
2023-04-20T12:12:06.166Z,34.13
2023-04-20T12:14:34.258Z,33.68
2023-04-20T12:17:01.893Z,33.78
2023-04-20T12:19:28.420Z,33.00
2023-04-20T12:21:55.185Z,33.40
2023-04-20T12:24:22.178Z,33.28
2023-04-20T12:26:48.950Z,33.64
2023-04-20T12:29:16.564Z,33.58
2023-04-20T12:31:43.370Z,32.80
2023-04-20T12:34:10.073Z,32.66
2023-04-20T12:36:36.765Z,34.08
2023-04-20T12:39:04.214Z,34.30
2023-04-20T12:41:31.112Z,32.86
2023-04-20T12:43:57.656Z,32.37
2023-04-20T12:46:25.471Z,33.60
2023-04-20T12:48:52.170Z,33.64
2023-04-20T12:51:18.725Z,32.36
2023-04-20T12:53:45.365Z,33.31
2023-04-20T12:56:11.956Z,34.07
2023-04-20T12:58:38.712Z,33.73
2023-04-20T13:01:05.523Z,33.97
2023-04-20T13:03:32.843Z,33.61
2023-04-20T13:06:00.303Z,34.92
2023-04-20T13:08:26.838Z,34.54
2023-04-20T13:10:53.431Z,34.49
2023-04-20T13:13:19.958Z,34.34
2023-04-20T13:15:46.518Z,35.29
2023-04-20T13:18:15.199Z,34.64
2023-04-20T13:20:41.751Z,35.06
2023-04-20T13:23:08.370Z,34.31
2023-04-20T13:25:35.027Z,35.24
2023-04-20T13:28:03.140Z,35.22
2023-04-20T13:30:29.790Z,34.78
2023-04-20T13:32:56.575Z,35.35
2023-04-20T13:35:24.136Z,34.27
2023-04-20T13:37:50.933Z,34.13
2023-04-20T13:40:17.577Z,34.63
2023-04-20T13:42:44.111Z,35.26
2023-04-20T13:45:11.027Z,35.40
2023-04-20T13:47:39.655Z,35.78
2023-04-20T13:50:07.989Z,36.03
2023-04-20T13:52:34.808Z,35.31
2023-04-20T13:55:01.398Z,34.06
2023-04-20T13:57:28.033Z,34.06
2023-04-20T13:59:54.591Z,33.47
2023-04-20T14:02:21.407Z,32.77
2023-04-20T14:04:48.228Z,33.49
2023-04-20T14:07:14.824Z,33.82
2023-04-20T14:09:41.430Z,34.38
2023-04-20T14:12:07.969Z,33.98
2023-04-20T14:14:34.519Z,34.37
2023-04-20T14:17:01.987Z,34.09
2023-04-20T14:19:28.720Z,33.43
2023-04-20T14:21:55.294Z,32.11
2023-04-20T14:24:21.813Z,31.81
2023-04-20T14:26:48.467Z,31.60
2023-04-20T14:29:15.774Z,31.72
2023-04-20T14:31:42.416Z,32.04
2023-04-20T14:34:09.576Z,33.08
2023-04-20T14:36:36.188Z,33.28
2023-04-20T14:39:02.765Z,34.20
2023-04-20T14:41:30.742Z,33.93
2023-04-20T14:43:58.872Z,35.10
2023-04-20T14:46:25.510Z,34.77
2023-04-20T14:48:52.248Z,35.10
2023-04-20T14:51:20.837Z,35.20
2023-04-20T14:53:47.408Z,35.65
2023-04-20T14:56:13.938Z,35.61
2023-04-20T14:58:42.393Z,35.78
2023-04-20T15:01:09.120Z,36.14
2023-04-20T15:03:36.402Z,36.16
2023-04-20T15:06:03.636Z,36.76
2023-04-20T15:08:30.694Z,36.95
2023-04-20T15:10:57.394Z,37.58
2023-04-20T15:13:24.515Z,37.72
2023-04-20T15:15:53.310Z,38.04
2023-04-20T15:18:21.516Z,37.45
2023-04-20T15:20:48.190Z,37.58
2023-04-20T15:23:15.126Z,38.33
2023-04-20T15:25:41.675Z,37.90
2023-04-20T15:28:08.321Z,38.13
2023-04-20T15:30:35.035Z,38.19
2023-04-20T15:33:04.466Z,37.66
2023-04-20T15:35:32.120Z,37.59
2023-04-20T15:37:58.665Z,38.33
2023-04-20T15:40:25.540Z,38.47
2023-04-20T15:42:52.103Z,38.52
2023-04-20T15:45:18.827Z,38.54
2023-04-20T15:47:45.873Z,38.11
2023-04-20T15:50:12.733Z,38.26
2023-04-20T15:52:39.397Z,38.55
2023-04-20T15:55:06.611Z,38.87
2023-04-20T15:57:33.153Z,38.78
2023-04-20T15:59:59.727Z,38.68
2023-04-20T16:02:26.420Z,38.43
2023-04-20T16:04:53.211Z,39.03
2023-04-20T16:07:19.778Z,38.78
2023-04-20T16:09:46.334Z,38.54
2023-04-20T16:12:13.377Z,38.90
2023-04-20T16:14:39.917Z,39.33
2023-04-20T16:17:06.458Z,38.98
2023-04-20T16:19:34.437Z,39.59
2023-04-20T16:22:01.092Z,39.58
2023-04-20T16:24:27.727Z,39.72
2023-04-20T16:26:56.803Z,39.29
2023-04-20T16:29:23.367Z,39.44
2023-04-20T16:31:50.221Z,39.91
2023-04-20T16:34:17.160Z,39.50
2023-04-20T16:36:44.302Z,39.30
2023-04-20T16:39:10.854Z,39.74
2023-04-20T16:41:37.466Z,39.68
2023-04-20T16:44:04.911Z,40.35
2023-04-20T16:46:32.107Z,40.09
2023-04-20T16:48:59.266Z,40.51
2023-04-20T16:51:25.868Z,41.06
2023-04-20T16:53:52.801Z,40.50
2023-04-20T16:56:19.380Z,40.34
2023-04-20T16:58:45.913Z,41.08
2023-04-20T17:01:13.851Z,40.63
2023-04-20T17:03:41.147Z,40.76
2023-04-20T17:06:09.797Z,41.30
2023-04-20T17:08:37.905Z,41.47
2023-04-20T17:11:05.253Z,42.42
2023-04-20T17:13:34.275Z,41.72
2023-04-20T17:16:00.936Z,42.71
2023-04-20T17:18:27.609Z,43.15
2023-04-20T17:20:57.247Z,42.52
2023-04-20T17:23:24.062Z,43.18
2023-04-20T17:25:51.377Z,43.25
2023-04-20T17:28:18.019Z,44.29
2023-04-20T17:30:44.854Z,45.67
2023-04-20T17:33:12.834Z,44.85
2023-04-20T17:35:39.531Z,45.59
2023-04-20T17:38:06.207Z,45.38
2023-04-20T17:40:33.904Z,46.75
2023-04-20T17:43:02.182Z,47.36
2023-04-20T17:45:29.160Z,47.38
2023-04-20T17:47:55.826Z,48.64
2023-04-20T17:50:22.803Z,48.26
2023-04-20T17:52:49.568Z,48.99
2023-04-20T17:55:16.165Z,50.13
2023-04-20T17:57:42.741Z,50.14
2023-04-20T18:00:11.753Z,50.06
2023-04-20T18:02:38.984Z,50.77
2023-04-20T18:05:06.547Z,52.56
2023-04-20T18:07:33.181Z,52.87
2023-04-20T18:09:59.733Z,52.92
2023-04-20T18:12:26.280Z,52.57
2023-04-20T18:14:52.937Z,54.09
2023-04-20T18:17:19.555Z,54.36
2023-04-20T18:19:46.189Z,54.86
2023-04-20T18:22:12.808Z,54.95
2023-04-20T18:24:39.383Z,55.28
2023-04-20T18:27:05.924Z,55.05
2023-04-20T18:29:32.518Z,56.35
2023-04-20T18:32:01.310Z,58.67
2023-04-20T18:34:31.023Z,58.26
2023-04-20T18:36:58.536Z,58.92
2023-04-20T18:39:25.504Z,59.47
2023-04-20T18:41:52.093Z,58.86
2023-04-20T18:44:18.971Z,59.62
2023-04-20T18:46:46.481Z,59.49
2023-04-20T18:49:13.224Z,59.85
2023-04-20T18:51:40.196Z,61.30
2023-04-20T18:54:06.988Z,59.89
2023-04-20T18:56:33.827Z,60.07
2023-04-20T18:59:01.557Z,60.10
2023-04-20T19:01:28.662Z,61.10
2023-04-20T19:03:55.663Z,60.61
2023-04-20T19:06:22.566Z,60.54
2023-04-20T19:08:50.881Z,61.19
2023-04-20T19:11:17.456Z,60.82
2023-04-20T19:13:45.349Z,61.69
2023-04-20T19:16:12.814Z,61.11
2023-04-20T19:18:39.850Z,60.97
2023-04-20T19:21:06.843Z,61.74
2023-04-20T19:23:35.706Z,61.81
2023-04-20T19:26:02.970Z,62.89
2023-04-20T19:28:29.888Z,62.35
2023-04-20T19:30:57.145Z,63.06
2023-04-20T19:33:23.757Z,63.31
2023-04-20T19:35:51.550Z,63.30
2023-04-20T19:38:19.067Z,63.26
2023-04-20T19:40:46.691Z,64.00
2023-04-20T19:43:13.585Z,63.70
2023-04-20T19:45:40.563Z,64.81
2023-04-20T19:48:07.144Z,63.27
2023-04-20T19:50:33.953Z,63.37
2023-04-20T19:53:00.664Z,63.23
2023-04-20T19:55:27.438Z,64.52
2023-04-20T19:57:53.996Z,64.60
2023-04-20T20:00:20.911Z,63.94
2023-04-20T20:02:47.645Z,64.33
2023-04-20T20:05:14.394Z,65.13
2023-04-20T20:07:41.436Z,65.46
2023-04-20T20:10:08.379Z,64.59
2023-04-20T20:12:35.163Z,65.48
2023-04-20T20:15:03.483Z,64.19
2023-04-20T20:17:30.232Z,64.58
2023-04-20T20:19:56.890Z,64.95
2023-04-20T20:22:23.506Z,64.68
2023-04-20T20:24:52.155Z,64.60
2023-04-20T20:27:18.886Z,65.38
2023-04-20T20:29:45.605Z,65.66
2023-04-20T20:32:12.155Z,65.38
2023-04-20T20:34:38.686Z,65.75
2023-04-20T20:37:05.225Z,64.98
2023-04-20T20:39:32.492Z,64.50
2023-04-20T20:41:59.750Z,65.48
2023-04-20T20:44:27.892Z,65.61
2023-04-20T20:46:54.655Z,65.98
2023-04-20T20:49:21.615Z,65.47
2023-04-20T20:51:48.175Z,65.34
2023-04-20T20:54:14.783Z,65.44
2023-04-20T20:56:41.542Z,65.74
2023-04-20T20:59:08.140Z,65.85
2023-04-20T21:01:34.720Z,64.95
2023-04-20T21:04:01.555Z,65.85
2023-04-20T21:06:28.384Z,66.12
2023-04-20T21:08:55.042Z,66.41
2023-04-20T21:11:21.688Z,65.44
2023-04-20T21:13:48.261Z,65.69
2023-04-20T21:16:14.878Z,65.70
2023-04-20T21:18:41.510Z,65.94
2023-04-20T21:21:12.687Z,65.74
2023-04-20T21:23:39.251Z,65.61
2023-04-20T21:26:05.810Z,66.13
2023-04-20T21:28:32.835Z,65.52
2023-04-20T21:30:59.446Z,65.85
2023-04-20T21:33:26.082Z,66.72
2023-04-20T21:35:52.791Z,66.15
2023-04-20T21:38:19.310Z,66.54
2023-04-20T21:40:45.886Z,66.35
2023-04-20T21:43:12.435Z,66.01
2023-04-20T21:45:39.075Z,66.20
2023-04-20T21:48:06.008Z,66.43
2023-04-20T21:50:32.618Z,66.30
2023-04-20T21:52:59.316Z,66.38
2023-04-20T21:55:25.948Z,66.36
2023-04-20T21:57:52.595Z,66.17
2023-04-20T22:00:19.384Z,66.50
2023-04-20T22:02:46.188Z,66.48
2023-04-20T22:05:13.895Z,66.27
2023-04-20T22:07:40.631Z,67.05
2023-04-20T22:10:07.853Z,67.15
2023-04-20T22:12:40.191Z,66.75
2023-04-20T22:15:12.304Z,66.29
2023-04-20T22:17:39.157Z,66.57
2023-04-20T22:20:09.242Z,66.11
2023-04-20T22:22:36.859Z,66.72
2023-04-20T22:25:04.776Z,66.97
2023-04-20T22:27:32.321Z,66.56
2023-04-20T22:29:59.232Z,66.71
2023-04-20T22:32:25.936Z,66.65
2023-04-20T22:34:52.624Z,66.70
2023-04-20T22:37:19.415Z,66.56
2023-04-20T22:39:45.949Z,67.04
2023-04-20T22:42:12.537Z,66.77
2023-04-20T22:44:39.067Z,66.49
2023-04-20T22:47:05.919Z,67.25
2023-04-20T22:49:32.757Z,67.01
2023-04-20T22:51:59.386Z,66.46
2023-04-20T22:54:25.908Z,67.33
2023-04-20T22:56:52.427Z,67.36
2023-04-20T22:59:19.816Z,67.78
2023-04-20T23:01:46.767Z,67.13
2023-04-20T23:04:13.457Z,67.39
2023-04-20T23:06:43.887Z,68.18
2023-04-20T23:09:12.556Z,68.02
2023-04-20T23:11:39.801Z,67.74
2023-04-20T23:14:07.535Z,67.83
2023-04-20T23:16:34.949Z,67.11
2023-04-20T23:19:01.879Z,67.15
2023-04-20T23:21:28.976Z,67.60
2023-04-20T23:23:57.817Z,67.75
2023-04-20T23:26:25.021Z,68.10
2023-04-20T23:28:53.110Z,68.15
2023-04-20T23:31:20.710Z,67.01
2023-04-20T23:33:48.203Z,67.85
2023-04-20T23:36:14.963Z,67.15
2023-04-20T23:38:41.686Z,67.31
2023-04-20T23:43:47.000Z,66.86
2023-04-20T23:46:14.469Z,67.91
2023-04-20T23:48:41.362Z,67.14
2023-04-20T23:51:07.882Z,67.77
2023-04-20T23:53:37.383Z,67.85
2023-04-20T23:56:04.506Z,68.19
2023-04-20T23:58:31.482Z,67.97
